Time;durP1;ratioP1;P1;durP2;ratioP2;P2;SDS_P1;SDS_P2;PMS_P1;PMS_P2;Temp;Humidity;BMP_temperature;BMP_pressure;BME280_temperature;BME280_humidity;BME280_pressure;Samples;Min_cycle;Max_cycle;Signal;HPM_P1;HPM_P2
2022/01/21 00:01:45;;;;;;;16.85;3.50;;;;;;;;;;6318907;22;20014;-93
2022/01/21 00:04:14;;;;;;;22.17;3.80;;;;;;;;;;6317726;22;20023;-94
2022/01/21 00:06:41;;;;;;;22.33;3.13;;;;;;;;;;6312238;22;20011;-94
2022/01/21 00:09:09;;;;;;;18.25;2.97;;;;;;;;;;6337012;22;20033;-95
2022/01/21 00:11:40;;;;;;;28.10;3.47;;;;;;;;;;6311016;22;20054;-94
2022/01/21 00:14:10;;;;;;;17.60;3.13;;;;;;;;;;6311155;22;20007;-94
2022/01/21 00:16:39;;;;;;;20.85;3.00;;;;;;;;;;6310651;22;20003;-93
2022/01/21 00:19:15;;;;;;;21.02;3.17;;;;;;;;;;6310946;22;20010;-93
2022/01/21 00:30:36;;;;;;;16.40;2.72;;;;;;;;;;6313207;22;20026;-94
2022/01/21 00:33:05;;;;;;;28.17;3.58;;;;;;;;;;6286463;22;20030;-94
2022/01/21 00:35:50;;;;;;;23.40;3.25;;;;;;;;;;6313423;22;20037;-93
2022/01/21 00:38:20;;;;;;;19.80;2.78;;;;;;;;;;6310979;22;20022;-94
2022/01/21 00:40:49;;;;;;;12.80;3.13;;;;;;;;;;6336813;22;20014;-94
2022/01/21 00:43:33;;;;;;;23.73;3.38;;;;;;;;;;6312446;22;20037;-94
2022/01/21 00:46:03;;;;;;;11.43;2.78;;;;;;;;;;6310950;22;20007;-94
2022/01/21 00:48:32;;;;;;;14.55;2.47;;;;;;;;;;6310806;22;20062;-94
2022/01/21 00:50:59;;;;;;;20.30;3.15;;;;;;;;;;6337027;22;20022;-95
2022/01/21 00:53:26;;;;;;;19.70;2.70;;;;;;;;;;6310609;22;20062;-96
2022/01/21 00:56:01;;;;;;;24.45;3.33;;;;;;;;;;6312359;22;20014;-95
2022/01/21 00:58:29;;;;;;;27.33;3.38;;;;;;;;;;6310712;22;20025;-94
2022/01/21 01:01:06;;;;;;;15.45;2.55;;;;;;;;;;6312881;22;20007;-96
2022/01/21 01:03:35;;;;;;;17.40;2.80;;;;;;;;;;6310935;22;20009;-96
2022/01/21 01:06:02;;;;;;;18.77;2.10;;;;;;;;;;6286975;22;20015;-95
2022/01/21 01:08:37;;;;;;;14.77;2.33;;;;;;;;;;6257851;22;20007;-94
2022/01/21 01:11:27;;;;;;;13.65;2.72;;;;;;;;;;6282316;22;20036;-94
2022/01/21 01:19:58;;;;;;;17.98;2.58;;;;;;;;;;6305680;22;19919;-95
2022/01/21 01:28:17;;;;;;;25.50;2.70;;;;;;;;;;6301001;22;20032;-95
2022/01/21 01:30:47;;;;;;;24.42;3.28;;;;;;;;;;6279641;22;20109;-95
2022/01/21 01:33:33;;;;;;;19.95;2.78;;;;;;;;;;6281774;22;20016;-95
2022/01/21 01:36:06;;;;;;;20.08;3.00;;;;;;;;;;6279592;22;20011;-95
2022/01/21 01:38:58;;;;;;;20.90;2.83;;;;;;;;;;6304938;22;20011;-95
2022/01/21 01:41:24;;;;;;;17.77;2.00;;;;;;;;;;6305105;22;20007;-94
2022/01/21 01:49:33;;;;;;;17.30;2.60;;;;;;;;;;6305439;22;20025;-95
2022/01/21 01:52:07;;;;;;;21.33;3.88;;;;;;;;;;6280342;22;20042;-95
2022/01/21 01:54:38;;;;;;;21.58;2.90;;;;;;;;;;6279726;22;20008;-96
2022/01/21 01:57:09;;;;;;;22.13;2.88;;;;;;;;;;6279827;22;20015;-95
2022/01/21 01:59:39;;;;;;;21.75;3.08;;;;;;;;;;6279141;22;20022;-96
2022/01/21 02:02:09;;;;;;;26.17;3.60;;;;;;;;;;6279179;22;20018;-95
2022/01/21 02:04:37;;;;;;;13.15;2.53;;;;;;;;;;6284204;22;20027;-93
2022/01/21 02:12:18;;;;;;;19.23;2.03;;;;;;;;;;6238526;22;20068;-93
2022/01/21 02:14:50;;;;;;;16.98;2.28;;;;;;;;;;6219900;23;20013;-93
2022/01/21 02:22:48;;;;;;;9.88;2.35;;;;;;;;;;6245331;23;20047;-93
2022/01/21 02:25:19;;;;;;;15.93;2.47;;;;;;;;;;6220525;23;20013;-93
2022/01/21 02:27:49;;;;;;;20.17;2.60;;;;;;;;;;6219696;23;20019;-94
2022/01/21 02:30:21;;;;;;;24.40;2.58;;;;;;;;;;6220090;23;20013;-94
2022/01/21 02:32:57;;;;;;;15.88;2.33;;;;;;;;;;6221184;23;20012;-94
2022/01/21 02:35:25;;;;;;;13.65;2.70;;;;;;;;;;6219203;23;20013;-94
2022/01/21 02:37:56;;;;;;;21.08;2.70;;;;;;;;;;6220223;23;20005;-93
2022/01/21 02:40:27;;;;;;;18.88;2.75;;;;;;;;;;6218938;22;20008;-94
2022/01/21 02:42:56;;;;;;;13.90;2.20;;;;;;;;;;6193980;22;20032;-94
2022/01/21 02:45:23;;;;;;;12.00;2.35;;;;;;;;;;6243541;22;20028;-93
2022/01/21 02:47:52;;;;;;;13.25;2.38;;;;;;;;;;6243857;22;20084;-93
2022/01/21 02:50:19;;;;;;;27.77;2.50;;;;;;;;;;6243773;22;20013;-94
2022/01/21 02:53:08;;;;;;;15.10;2.03;;;;;;;;;;6218225;22;20066;-93
2022/01/21 02:55:35;;;;;;;16.02;1.98;;;;;;;;;;6218440;22;20048;-94
2022/01/21 02:58:16;;;;;;;9.60;2.00;;;;;;;;;;6219244;22;20035;-93
2022/01/21 03:00:51;;;;;;;16.33;2.25;;;;;;;;;;6219005;22;20008;-94
2022/01/21 03:03:33;;;;;;;15.82;2.45;;;;;;;;;;6217890;22;20031;-93
2022/01/21 03:06:01;;;;;;;11.63;2.10;;;;;;;;;;6218134;22;20029;-93
2022/01/21 03:08:33;;;;;;;20.02;2.35;;;;;;;;;;6218882;22;20076;-94
2022/01/21 03:11:03;;;;;;;20.02;2.72;;;;;;;;;;6233005;22;20016;-94
2022/01/21 03:13:34;;;;;;;17.42;2.20;;;;;;;;;;6273497;22;20040;-94
2022/01/21 03:16:06;;;;;;;19.95;2.22;;;;;;;;;;6273421;22;20024;-94
2022/01/21 03:18:34;;;;;;;16.42;2.63;;;;;;;;;;6274234;22;20004;-92
2022/01/21 03:21:01;;;;;;;13.68;2.58;;;;;;;;;;6273478;22;20055;-93
2022/01/21 03:23:31;;;;;;;14.85;1.90;;;;;;;;;;6273589;22;20015;-93
2022/01/21 03:25:58;;;;;;;10.18;2.13;;;;;;;;;;6273484;22;20024;-93
2022/01/21 03:28:25;;;;;;;19.48;3.55;;;;;;;;;;6274031;22;20019;-92
2022/01/21 03:30:55;;;;;;;9.55;1.75;;;;;;;;;;6273134;22;20015;-92
2022/01/21 03:33:25;;;;;;;15.65;2.08;;;;;;;;;;6273500;22;20008;-94
2022/01/21 03:35:53;;;;;;;14.32;2.22;;;;;;;;;;6273622;22;20039;-93
2022/01/21 03:38:28;;;;;;;13.07;2.25;;;;;;;;;;6274143;22;20004;-93
2022/01/21 03:40:57;;;;;;;18.30;2.65;;;;;;;;;;6274229;22;20012;-93
2022/01/21 03:43:24;;;;;;;20.08;2.15;;;;;;;;;;6275493;22;20008;-93
2022/01/21 03:45:55;;;;;;;12.27;2.30;;;;;;;;;;6275788;22;20059;-93
2022/01/21 03:48:22;;;;;;;13.40;1.90;;;;;;;;;;6275194;22;20024;-93
2022/01/21 03:50:52;;;;;;;16.80;1.85;;;;;;;;;;6275309;22;20008;-93
2022/01/21 03:53:20;;;;;;;12.68;2.25;;;;;;;;;;6275286;22;20084;-92
2022/01/21 03:55:54;;;;;;;16.50;2.17;;;;;;;;;;6274849;22;20008;-92
2022/01/21 03:58:22;;;;;;;8.52;1.98;;;;;;;;;;6275318;22;20009;-93
2022/01/21 04:00:54;;;;;;;16.40;2.22;;;;;;;;;;6275255;22;20012;-93
2022/01/21 04:03:25;;;;;;;12.80;2.20;;;;;;;;;;6275136;22;20007;-92
2022/01/21 04:05:52;;;;;;;18.30;2.83;;;;;;;;;;6274830;22;20031;-92
2022/01/21 04:08:20;;;;;;;19.95;2.08;;;;;;;;;;6275480;22;20015;-93
2022/01/21 04:10:48;;;;;;;17.13;2.38;;;;;;;;;;6274637;22;20043;-94
2022/01/21 04:13:21;;;;;;;14.80;2.83;;;;;;;;;;6275578;22;20008;-93
2022/01/21 04:15:55;;;;;;;20.77;2.05;;;;;;;;;;6274981;22;20027;-94
2022/01/21 04:18:24;;;;;;;15.07;2.58;;;;;;;;;;6274996;22;20028;-94
2022/01/21 04:20:55;;;;;;;12.98;2.03;;;;;;;;;;6274889;22;20047;-94
2022/01/21 04:23:25;;;;;;;17.23;2.58;;;;;;;;;;6275041;22;20015;-95
2022/01/21 04:25:52;;;;;;;15.63;2.85;;;;;;;;;;6274531;22;20008;-94
2022/01/21 04:28:20;;;;;;;19.63;2.25;;;;;;;;;;6274062;22;20039;-94
2022/01/21 04:31:01;;;;;;;57.97;4.10;;;;;;;;;;6271181;22;20012;-94
2022/01/21 04:33:29;;;;;;;15.98;2.38;;;;;;;;;;6274387;22;20020;-94
2022/01/21 04:35:58;;;;;;;11.40;1.33;;;;;;;;;;6274151;22;20031;-94
2022/01/21 04:38:39;;;;;;;22.15;2.50;;;;;;;;;;6252131;22;20018;-93
2022/01/21 04:49:27;;;;;;;12.13;1.98;;;;;;;;;;6274611;22;20043;-94
2022/01/21 04:52:12;;;;;;;15.50;2.55;;;;;;;;;;6273917;22;20012;-94
2022/01/21 04:54:44;;;;;;;14.98;2.47;;;;;;;;;;6274246;22;20011;-93
2022/01/21 04:57:14;;;;;;;10.25;1.45;;;;;;;;;;6249327;22;20120;-94
2022/01/21 04:59:42;;;;;;;11.27;1.40;;;;;;;;;;6274051;22;20052;-93
2022/01/21 05:02:09;;;;;;;23.70;2.53;;;;;;;;;;6273866;22;20012;-94
2022/01/21 05:04:43;;;;;;;11.00;2.67;;;;;;;;;;6273500;22;20022;-93
2022/01/21 05:07:21;;;;;;;14.68;2.17;;;;;;;;;;6273692;22;20008;-93
2022/01/21 07:46:16;;;;;;;8.35;1.80;;;;;;;;;;6239812;22;20440;-94
2022/01/21 07:48:59;;;;;;;19.05;2.53;;;;;;;;;;6215187;22;20024;-94
2022/01/21 07:51:40;;;;;;;13.77;2.05;;;;;;;;;;6237904;22;20009;-95
2022/01/21 07:54:20;;;;;;;14.35;2.60;;;;;;;;;;6215923;22;20009;-94
2022/01/21 07:57:02;;;;;;;16.33;1.65;;;;;;;;;;6215620;22;20163;-93
2022/01/21 08:03:16;;;;;;;18.10;2.30;;;;;;;;;;6239463;22;20014;-94
2022/01/21 08:21:29;;;;;;;6.87;1.20;;;;;;;;;;6240710;22;20012;-95
2022/01/21 08:24:09;;;;;;;18.65;2.60;;;;;;;;;;6217188;23;20008;-94
2022/01/21 08:26:51;;;;;;;12.80;1.75;;;;;;;;;;6217219;23;20015;-94
2022/01/21 08:29:33;;;;;;;18.40;1.55;;;;;;;;;;6198922;23;20052;-94
2022/01/21 08:32:13;;;;;;;11.13;2.17;;;;;;;;;;6216637;23;20037;-93
2022/01/21 08:34:54;;;;;;;19.35;1.80;;;;;;;;;;6237637;22;20032;-94
2022/01/21 08:37:35;;;;;;;14.75;2.00;;;;;;;;;;6180284;22;20043;-94
2022/01/21 08:40:16;;;;;;;11.63;1.55;;;;;;;;;;6174543;22;20033;-89
2022/01/21 08:42:56;;;;;;;15.52;2.63;;;;;;;;;;6186522;23;20043;-93
2022/01/21 08:45:37;;;;;;;8.88;1.30;;;;;;;;;;6210607;23;20032;-94
2022/01/21 08:48:18;;;;;;;11.32;2.10;;;;;;;;;;6206909;23;20005;-94
2022/01/21 08:51:02;;;;;;;13.00;1.60;;;;;;;;;;6318655;22;20014;-92
2022/01/21 08:53:44;;;;;;;11.40;1.90;;;;;;;;;;6338993;22;20014;-94
2022/01/21 08:56:29;;;;;;;11.50;2.25;;;;;;;;;;6236626;22;20020;-93
2022/01/21 08:59:07;;;;;;;10.02;2.55;;;;;;;;;;6184267;22;20044;-94
2022/01/21 09:17:20;;;;;;;19.20;2.47;;;;;;;;;;6181999;22;20008;-94
2022/01/21 09:20:08;;;;;;;6.07;1.17;;;;;;;;;;6218388;22;20000;-96
2022/01/21 09:22:52;;;;;;;13.38;2.22;;;;;;;;;;6196443;22;20008;-96
2022/01/21 09:25:32;;;;;;;14.63;1.67;;;;;;;;;;6217836;23;20038;-95
2022/01/21 09:28:13;;;;;;;10.15;2.05;;;;;;;;;;6217603;23;20016;-95
2022/01/21 09:30:55;;;;;;;9.30;2.00;;;;;;;;;;6240261;23;20009;-95
2022/01/21 09:33:41;;;;;;;12.07;1.60;;;;;;;;;;6240618;22;20008;-96
2022/01/21 09:36:44;;;;;;;8.73;1.75;;;;;;;;;;6240183;22;20005;-95
2022/01/21 09:39:45;;;;;;;11.25;2.70;;;;;;;;;;6239997;22;20005;-95
2022/01/21 09:42:26;;;;;;;14.48;2.72;;;;;;;;;;6217666;22;20001;-95
2022/01/21 09:45:14;;;;;;;15.40;3.13;;;;;;;;;;6240335;22;20001;-95
2022/01/21 09:47:59;;;;;;;11.77;2.50;;;;;;;;;;6238775;22;20005;-94
2022/01/21 09:51:00;;;;;;;;;;;;;;;;;;;;;
2022/01/21 09:54:20;;;;;;;;;;;;;;;;;;;;;
2022/01/21 09:57:04;;;;;;;7.70;1.65;;;;;;;;;;6194813;22;20008;-94
2022/01/21 09:59:45;;;;;;;15.90;1.70;;;;;;;;;;6216107;22;20052;-96
2022/01/21 10:53:44;;;;;;;16.77;2.30;;;;;;;;;;6341099;22;20040;-94
2022/01/21 10:56:27;;;;;;;19.33;2.40;;;;;;;;;;6341645;22;20090;-94
2022/01/21 10:59:07;;;;;;;12.30;2.17;;;;;;;;;;6340798;22;20007;-94
2022/01/21 11:01:58;;;;;;;14.70;2.13;;;;;;;;;;6340431;22;20066;-94
2022/01/21 11:04:44;;;;;;;12.18;1.92;;;;;;;;;;6231743;22;20019;-95
2022/01/21 11:07:51;;;;;;;20.08;2.90;;;;;;;;;;6214767;23;20028;-94
2022/01/21 11:10:46;;;;;;;15.52;2.35;;;;;;;;;;6236108;23;20045;-94
2022/01/21 11:13:28;;;;;;;23.70;3.03;;;;;;;;;;6236120;23;20038;-93
2022/01/21 11:16:23;;;;;;;13.90;2.75;;;;;;;;;;6234767;23;20061;-95
2022/01/21 11:24:16;;;;;;;20.13;2.92;;;;;;;;;;6195008;22;20042;-94
2022/01/21 11:27:17;;;;;;;13.93;2.80;;;;;;;;;;6237008;23;20015;-94
2022/01/21 11:30:19;;;;;;;15.82;2.67;;;;;;;;;;6240426;22;20036;-95
2022/01/21 11:33:11;;;;;;;15.23;2.78;;;;;;;;;;6238939;22;20008;-95
2022/01/21 11:35:52;;;;;;;13.45;2.78;;;;;;;;;;6195538;23;20012;-95
2022/01/21 11:38:37;;;;;;;26.83;5.18;;;;;;;;;;6215858;23;20049;-95
2022/01/21 11:41:20;;;;;;;14.43;3.13;;;;;;;;;;6239150;22;20008;-94
2022/01/21 11:44:05;;;;;;;18.75;2.72;;;;;;;;;;6237284;23;20005;-94
2022/01/21 11:47:02;;;;;;;20.45;2.75;;;;;;;;;;6215340;23;20004;-95
2022/01/21 11:49:55;;;;;;;15.93;3.03;;;;;;;;;;6238986;23;20008;-94
2022/01/21 11:53:05;;;;;;;14.55;2.65;;;;;;;;;;6217525;23;20011;-95
2022/01/21 11:56:26;;;;;;;11.07;2.58;;;;;;;;;;6237742;22;20029;-95
2022/01/21 11:59:32;;;;;;;15.55;2.63;;;;;;;;;;6239241;22;20005;-95
2022/01/21 12:02:39;;;;;;;17.08;2.80;;;;;;;;;;6239778;22;20054;-94
2022/01/21 12:05:40;;;;;;;12.80;2.78;;;;;;;;;;6240788;22;20012;-95
2022/01/21 12:08:39;;;;;;;19.55;3.55;;;;;;;;;;6240613;22;20008;-94
2022/01/21 12:11:35;;;;;;;16.40;2.83;;;;;;;;;;6240491;23;20009;-96
2022/01/21 12:14:29;;;;;;;14.02;2.25;;;;;;;;;;6240483;23;20009;-95
2022/01/21 12:17:33;;;;;;;22.10;3.35;;;;;;;;;;6238704;23;20030;-95
2022/01/21 12:20:13;;;;;;;21.30;3.28;;;;;;;;;;6216340;23;20042;-95
2022/01/21 12:23:15;;;;;;;18.73;2.60;;;;;;;;;;6216115;22;20028;-95
2022/01/21 13:42:41;;;;;;;22.95;3.45;;;;;;;;;;6240792;22;20038;-95
2022/01/21 13:45:27;;;;;;;19.23;3.17;;;;;;;;;;6230266;22;20062;-95
2022/01/21 13:48:11;;;;;;;19.75;3.28;;;;;;;;;;6244953;22;20012;-94
2022/01/21 13:53:29;;;;;;;33.27;4.30;;;;;;;;;;6208503;22;20007;-95
2022/01/21 13:56:11;;;;;;;28.20;3.00;;;;;;;;;;6336612;22;20015;-94
2022/01/21 13:58:55;;;;;;;22.52;3.22;;;;;;;;;;6334860;22;20022;-95
2022/01/21 14:01:38;;;;;;;17.52;2.65;;;;;;;;;;6333362;22;20023;-95
2022/01/21 14:04:19;;;;;;;13.63;2.78;;;;;;;;;;6309724;22;20011;-95
2022/01/21 14:06:59;;;;;;;18.33;2.95;;;;;;;;;;6311229;22;20061;-95
2022/01/21 14:09:40;;;;;;;24.08;2.88;;;;;;;;;;6327478;22;20015;-94
2022/01/21 14:12:22;;;;;;;20.92;2.70;;;;;;;;;;6334426;22;20135;-94
2022/01/21 14:15:03;;;;;;;19.23;2.92;;;;;;;;;;6311384;22;20027;-95
2022/01/21 14:33:15;;;;;;;5.97;1.33;;;;;;;;;;6327138;22;20003;-93
2022/01/21 14:35:56;;;;;;;11.13;1.85;;;;;;;;;;6375766;22;20038;-95
2022/01/21 14:38:36;;;;;;;18.08;2.90;;;;;;;;;;6376413;22;20014;-94
2022/01/21 14:41:19;;;;;;;14.13;2.35;;;;;;;;;;6376707;22;20010;-94
2022/01/21 14:44:00;;;;;;;15.55;2.25;;;;;;;;;;6376242;22;20028;-94
2022/01/21 14:50:11;;;;;;;16.98;2.95;;;;;;;;;;6336878;22;19985;-95
2022/01/21 14:53:01;;;;;;;18.67;2.83;;;;;;;;;;6335475;22;20003;-93
2022/01/21 14:55:44;;;;;;;18.15;2.67;;;;;;;;;;6312753;22;20007;-95
2022/01/21 14:58:30;;;;;;;18.85;2.63;;;;;;;;;;6282877;22;20024;-94
2022/01/21 15:01:11;;;;;;;18.58;2.55;;;;;;;;;;6282885;22;20000;-95
2022/01/21 15:03:55;;;;;;;18.42;2.65;;;;;;;;;;6283178;22;20003;-95
2022/01/21 15:06:36;;;;;;;9.50;1.98;;;;;;;;;;6304013;22;20031;-94
2022/01/21 15:09:30;;;;;;;24.33;2.40;;;;;;;;;;6282882;22;20015;-94
2022/01/21 15:15:55;;;;;;;11.98;1.80;;;;;;;;;;6302205;22;20008;-94
2022/01/21 15:18:37;;;;;;;12.55;2.28;;;;;;;;;;6270409;22;20013;-94
2022/01/21 15:21:20;;;;;;;14.95;1.67;;;;;;;;;;6163672;23;20065;-95
2022/01/21 15:24:16;;;;;;;17.15;2.20;;;;;;;;;;6183059;23;20029;-94
2022/01/21 15:30:29;;;;;;;16.52;2.00;;;;;;;;;;6208597;23;20004;-93
2022/01/21 15:33:14;;;;;;;17.27;2.83;;;;;;;;;;6184058;23;20005;-95
2022/01/21 15:36:32;;;;;;;11.13;1.73;;;;;;;;;;6186285;23;20013;-95
